Grande Europa — ICGE — position and weather

sailwx.info

Track history (hours):
 
Tides and Currents Weather Stations Pressure Air Temp Water Temp Dewpoint Dewpoint Depression Visibility Wind Speed Wind Dir Waves Ship Positions

Grande Europa

Last reported at 2014-Jul-24 13:10 UTC. Time now 2014-Jul-25 01:33 UTC.
Position N 40°33' E 014°43'.

Length 183 m; draft 7.7 m.

Type: Cargo ship. MMSI: 247206000.

Date/timePositionNaut miles runAvg speedWind from/ knotsBaromVisibWave heightAir tempDewpointWater temp
2014-Jul-24 13:10N 40°33' E 014°43'914.0
2014-Jul-24 12:34N 40°24' E 014°44'1913.9
2014-Jul-24 11:10N 40°05' E 014°48'46012.9
2014-Jul-22 23:31N 35°18' E 022°23'1414.0
2014-Jul-22 22:33N 35°12' E 022°38'1613.9
2014-Jul-22 21:24N 35°06' E 022°56'33714.8
2014-Jul-21 22:34N 34°33' E 029°45'1616.1
2014-Jul-21 21:33N 34°33' E 030°05'1616.3
2014-Jul-21 20:34N 34°32' E 030°24'416.3
2014-Jul-21 20:18N 34°32' E 030°29'1216.3
2014-Jul-21 19:34N 34°32' E 030°44'1616.2
2014-Jul-21 18:34N 34°32' E 031°04'1916.2
2014-Jul-21 17:25N 34°32' E 031°26'1415.9
2014-Jul-21 16:32N 34°31' E 031°43'1515.7
2014-Jul-21 15:34N 34°31' E 032°02'1615.8
2014-Jul-21 14:33N 34°31' E 032°21'1615.8
2014-Jul-21 13:34N 34°30' E 032°40'1515.5
2014-Jul-21 12:33N 34°30' E 032°59'9 9.1
2014-Jul-21 11:33N 34°39' E 033°01'0 0.2
2014-Jul-21 10:29N 34°39' E 033°01'0 0.0
2014-Jul-21 09:32N 34°39' E 033°01'0 0.0
2014-Jul-21 08:29N 34°39' E 033°01'0 0.0
2014-Jul-21 07:32N 34°39' E 033°01'0 0.0
2014-Jul-21 06:32N 34°39' E 033°01'0 0.0
2014-Jul-21 05:32N 34°39' E 033°01'0 0.1
2014-Jul-21 04:34N 34°39' E 033°01'4 4.3
2014-Jul-21 03:34N 34°36' E 033°05'1211.9
2014-Jul-21 02:33N 34°24' E 033°08'  
2014-Jul-17 03:16N 36°30' E 026°40'1315.4
2014-Jul-17 02:25N 36°39' E 026°29'1416.0
2014-Jul-17 01:33N 36°50' E 026°18'1615.9
2014-Jul-17 00:32N 37°04' E 026°08'1515.5
2014-Jul-16 23:34N 37°17' E 025°59'1615.4
2014-Jul-16 22:33N 37°31' E 025°50'69 2.7
2014-Jul-15 21:18N 38°40' E 025°48'2614.2
2014-Jul-15 19:28N 38°31' E 025°17'4814.5
2014-Jul-15 16:07N 37°55' E 024°35'1014.6
2014-Jul-15 15:25N 37°48' E 024°26'2613.5
2014-Jul-15 13:28N 37°34' E 023°58'1213.4
2014-Jul-15 12:34N 37°38' E 023°44'1514.9
2014-Jul-15 11:34N 37°52' E 023°36'6 5.6
2014-Jul-15 10:33N 37°58' E 023°36'0 0.0
2014-Jul-15 09:33N 37°58' E 023°36'0 0.0
2014-Jul-15 08:33N 37°58' E 023°36'0 0.0
2014-Jul-15 07:33N 37°58' E 023°36'0 0.0
2014-Jul-15 06:33N 37°58' E 023°36'0 0.0
2014-Jul-15 05:33N 37°58' E 023°36'0 0.1
2014-Jul-15 04:33N 37°58' E 023°36'4 4.1
2014-Jul-15 03:33N 37°54' E 023°37'5 4.9
2014-Jul-15 02:33N 37°49' E 023°40'6 6.3
2014-Jul-15 01:33N 37°44' E 023°43'1514.1
2014-Jul-15 00:28N 37°28' E 023°45'1515.2
2014-Jul-14 23:29N 37°13' E 023°45'1414.6
2014-Jul-14 22:33N 37°01' E 023°37'1514.9
2014-Jul-14 21:33N 36°47' E 023°31'1514.7
2014-Jul-14 20:33N 36°35' E 023°40'1514.9
2014-Jul-14 19:33N 36°23' E 023°51'7 7.4
2014-Jul-14 18:33N 36°18' E 023°45'1515.2
2014-Jul-14 17:33N 36°20' E 023°26'  
Track history (hours):
 
Tides and Currents Weather Stations Pressure Air Temp Water Temp Dewpoint Dewpoint Depression Visibility Wind Speed Wind Dir Waves Ship Positions

Grande Europa

Last reported at 2014-Jul-24 13:10 UTC. Time now 2014-Jul-25 01:33 UTC.
Position N 40°33' E 014°43'.

Length 183 m; draft 7.7 m.

Type: Cargo ship. MMSI: 247206000.

Date/timePositionNaut miles runAvg speedWind from/ knotsBaromVisibWave heightAir tempDewpointWater temp
2014-Jul-24 13:10N 40°33' E 014°43'914.0
2014-Jul-24 12:34N 40°24' E 014°44'1913.9
2014-Jul-24 11:10N 40°05' E 014°48'46012.9
2014-Jul-22 23:31N 35°18' E 022°23'1414.0
2014-Jul-22 22:33N 35°12' E 022°38'1613.9
2014-Jul-22 21:24N 35°06' E 022°56'33714.8
2014-Jul-21 22:34N 34°33' E 029°45'1616.1
2014-Jul-21 21:33N 34°33' E 030°05'1616.3
2014-Jul-21 20:34N 34°32' E 030°24'416.3
2014-Jul-21 20:18N 34°32' E 030°29'1216.3
2014-Jul-21 19:34N 34°32' E 030°44'1616.2
2014-Jul-21 18:34N 34°32' E 031°04'1916.2
2014-Jul-21 17:25N 34°32' E 031°26'1415.9
2014-Jul-21 16:32N 34°31' E 031°43'1515.7
2014-Jul-21 15:34N 34°31' E 032°02'1615.8
2014-Jul-21 14:33N 34°31' E 032°21'1615.8
2014-Jul-21 13:34N 34°30' E 032°40'1515.5
2014-Jul-21 12:33N 34°30' E 032°59'9 9.1
2014-Jul-21 11:33N 34°39' E 033°01'0 0.2
2014-Jul-21 10:29N 34°39' E 033°01'0 0.0
2014-Jul-21 09:32N 34°39' E 033°01'0 0.0
2014-Jul-21 08:29N 34°39' E 033°01'0 0.0
2014-Jul-21 07:32N 34°39' E 033°01'0 0.0
2014-Jul-21 06:32N 34°39' E 033°01'0 0.0
2014-Jul-21 05:32N 34°39' E 033°01'0 0.1
2014-Jul-21 04:34N 34°39' E 033°01'4 4.3
2014-Jul-21 03:34N 34°36' E 033°05'1211.9
2014-Jul-21 02:33N 34°24' E 033°08'  
2014-Jul-17 03:16N 36°30' E 026°40'1315.4
2014-Jul-17 02:25N 36°39' E 026°29'1416.0
2014-Jul-17 01:33N 36°50' E 026°18'1615.9
2014-Jul-17 00:32N 37°04' E 026°08'1515.5
2014-Jul-16 23:34N 37°17' E 025°59'1615.4
2014-Jul-16 22:33N 37°31' E 025°50'69 2.7
2014-Jul-15 21:18N 38°40' E 025°48'2614.2
2014-Jul-15 19:28N 38°31' E 025°17'4814.5
2014-Jul-15 16:07N 37°55' E 024°35'1014.6
2014-Jul-15 15:25N 37°48' E 024°26'2613.5
2014-Jul-15 13:28N 37°34' E 023°58'1213.4
2014-Jul-15 12:34N 37°38' E 023°44'1514.9
2014-Jul-15 11:34N 37°52' E 023°36'6 5.6
2014-Jul-15 10:33N 37°58' E 023°36'0 0.0
2014-Jul-15 09:33N 37°58' E 023°36'0 0.0
2014-Jul-15 08:33N 37°58' E 023°36'0 0.0
2014-Jul-15 07:33N 37°58' E 023°36'0 0.0
2014-Jul-15 06:33N 37°58' E 023°36'0 0.0
2014-Jul-15 05:33N 37°58' E 023°36'0 0.1
2014-Jul-15 04:33N 37°58' E 023°36'4 4.1
2014-Jul-15 03:33N 37°54' E 023°37'5 4.9
2014-Jul-15 02:33N 37°49' E 023°40'6 6.3
2014-Jul-15 01:33N 37°44' E 023°43'1514.1
2014-Jul-15 00:28N 37°28' E 023°45'1515.2
2014-Jul-14 23:29N 37°13' E 023°45'1414.6
2014-Jul-14 22:33N 37°01' E 023°37'1514.9
2014-Jul-14 21:33N 36°47' E 023°31'1514.7
2014-Jul-14 20:33N 36°35' E 023°40'1514.9
2014-Jul-14 19:33N 36°23' E 023°51'7 7.4
2014-Jul-14 18:33N 36°18' E 023°45'1515.2
2014-Jul-14 17:33N 36°20' E 023°26'  

Dump ship's entire track history